Time,TemperatureF,DewpointF,PressureIn,WindDirection,WindDirectionDegrees,WindSpeedMPH,WindSpeedGustMPH,Humidity,HourlyPrecipIn,Conditions,Clouds,dailyrainin,SolarRadiationWatts/m^2,SoftwareType,DateUTC
2013-04-09 00:02:00,31.0,12.0,29.80,North,357,20.0,32.0,45,-99.99,,,-99.99,-0.100000,,2013-04-09 06:02:00,
2013-04-09 00:12:00,31.0,12.0,29.80,North,357,22.0,32.0,45,-99.99,,,-99.99,-0.100000,,2013-04-09 06:12:00,
2013-04-09 00:22:00,30.0,12.0,29.80,North,358,22.0,33.0,46,-99.99,,,-99.99,0.200000,,2013-04-09 06:22:00,
2013-04-09 00:32:00,30.0,12.0,29.81,North,358,22.0,30.0,46,-99.99,,,-99.99,-0.100000,,2013-04-09 06:32:00,
2013-04-09 00:42:00,30.0,12.0,29.81,North,359,22.0,32.0,46,-99.99,,,-99.99,0.000000,,2013-04-09 06:42:00,
2013-04-09 00:52:00,30.0,12.0,29.81,North,356,24.0,37.0,46,-99.99,,,-99.99,0.000000,,2013-04-09 06:52:00,
2013-04-09 01:02:00,30.0,12.0,29.81,North,358,19.0,33.0,47,-99.99,,,-99.99,-0.100000,,2013-04-09 07:02:00,
2013-04-09 01:11:00,30.0,11.0,29.82,North,0,21.0,34.0,46,-99.99,,,-99.99,0.000000,,2013-04-09 07:11:00,
2013-04-09 01:21:00,30.0,11.0,29.83,North,0,21.0,31.0,45,-99.99,,,-99.99,-0.100000,,2013-04-09 07:21:00,
2013-04-09 01:32:00,30.0,11.0,29.83,North,357,19.0,31.0,45,-99.99,,,-99.99,0.000000,,2013-04-09 07:32:00,
2013-04-09 01:41:00,30.0,11.0,29.83,North,0,22.0,31.0,45,-99.99,,,-99.99,0.000000,,2013-04-09 07:41:00,
2013-04-09 01:52:00,30.0,11.0,29.83,North,357,21.0,34.0,45,-99.99,,,-99.99,-0.100000,,2013-04-09 07:52:00,
2013-04-09 02:02:00,29.0,11.0,29.83,North,358,23.0,37.0,45,-99.99,,,-99.99,-0.100000,,2013-04-09 08:02:00,
2013-04-09 02:11:00,29.0,11.0,29.83,North,1,21.0,33.0,45,-99.99,,,-99.99,0.200000,,2013-04-09 08:11:00,
2013-04-09 02:21:00,29.0,10.0,29.83,North,358,23.0,33.0,44,-99.99,,,-99.99,0.000000,,2013-04-09 08:21:00,
2013-04-09 02:32:00,29.0,10.0,29.84,North,1,19.0,30.0,44,-99.99,,,-99.99,-0.100000,,2013-04-09 08:32:00,
2013-04-09 02:42:00,30.0,10.0,29.84,North,2,22.0,34.0,43,-99.99,,,-99.99,-0.200000,,2013-04-09 08:42:00,
2013-04-09 02:52:00,30.0,10.0,29.85,North,5,22.0,35.0,43,-99.99,,,-99.99,-0.200000,,2013-04-09 08:52:00,
2013-04-09 03:01:00,29.0,10.0,29.85,North,0,22.0,32.0,43,-99.99,,,-99.99,-0.200000,,2013-04-09 09:01:00,
2013-04-09 03:21:00,29.0,10.0,29.85,North,5,25.0,35.0,43,-99.99,,,-99.99,-0.100000,,2013-04-09 09:21:00,
2013-04-09 03:32:00,29.0,10.0,29.86,North,3,22.0,34.0,42,-99.99,,,-99.99,0.100000,,2013-04-09 09:32:00,
2013-04-09 03:43:00,29.0,9.0,29.87,North,1,22.0,34.0,43,-99.99,,,-99.99,0.000000,,2013-04-09 09:43:00,
2013-04-09 03:52:00,29.0,9.0,29.87,North,6,19.0,32.0,42,-99.99,,,-99.99,-0.100000,,2013-04-09 09:52:00,
2013-04-09 04:03:00,29.0,9.0,29.87,North,4,22.0,34.0,42,-99.99,,,-99.99,0.000000,,2013-04-09 10:03:00,
2013-04-09 04:22:00,29.0,9.0,29.88,North,7,20.0,28.0,42,-99.99,,,-99.99,0.000000,,2013-04-09 10:22:00,
2013-04-09 04:32:00,29.0,9.0,29.88,NNE,12,19.0,30.0,43,-99.99,,,-99.99,0.000000,,2013-04-09 10:32:00,
2013-04-09 04:42:00,29.0,10.0,29.88,North,10,26.0,34.0,45,-99.99,,,-99.99,0.000000,,2013-04-09 10:42:00,
2013-04-09 04:52:00,28.0,10.0,29.89,North,7,22.0,32.0,46,-99.99,,,-99.99,-0.300000,,2013-04-09 10:52:00,
2013-04-09 05:02:00,28.0,10.0,29.89,NNE,16,17.0,27.0,46,-99.99,,,-99.99,0.000000,,2013-04-09 11:02:00,
2013-04-09 05:11:00,28.0,9.0,29.89,North,7,19.0,30.0,44,-99.99,,,-99.99,-0.100000,,2013-04-09 11:11:00,
2013-04-09 05:22:00,28.0,9.0,29.90,North,9,18.0,29.0,43,-99.99,,,-99.99,0.000000,,2013-04-09 11:22:00,
2013-04-09 05:32:00,28.0,9.0,29.90,North,5,18.0,25.0,43,-99.99,,,-99.99,0.000000,,2013-04-09 11:32:00,
2013-04-09 05:42:00,28.0,8.0,29.90,North,10,21.0,31.0,43,-99.99,,,-99.99,0.000000,,2013-04-09 11:42:00,
2013-04-09 05:51:00,28.0,9.0,29.91,North,5,18.0,28.0,43,-99.99,,,-99.99,-0.100000,,2013-04-09 11:51:00,
2013-04-09 06:01:00,28.0,9.0,29.91,North,6,19.0,27.0,43,-99.99,,,-99.99,0.000000,,2013-04-09 12:01:00,
2013-04-09 06:12:00,28.0,8.0,29.92,North,8,18.0,24.0,42,-99.99,,,-99.99,-0.100000,,2013-04-09 12:12:00,
2013-04-09 06:21:00,29.0,9.0,29.93,North,11,19.0,30.0,42,-99.99,,,-99.99,-0.100000,,2013-04-09 12:21:00,
2013-04-09 06:32:00,28.0,9.0,29.94,North,11,17.0,26.0,44,-99.99,,,-99.99,-0.100000,,2013-04-09 12:32:00,
2013-04-09 06:42:00,28.0,10.0,29.94,NNE,12,21.0,36.0,46,-99.99,,,-99.99,0.000000,,2013-04-09 12:42:00,
2013-04-09 06:52:00,27.0,12.0,29.95,North,8,21.0,30.0,51,-99.99,,,-99.99,0.000000,,2013-04-09 12:52:00,
2013-04-09 07:02:00,27.0,12.0,29.96,North,3,22.0,35.0,53,-99.99,,,-99.99,0.000000,,2013-04-09 13:02:00,
2013-04-09 07:11:00,27.0,10.0,29.97,NNE,13,20.0,29.0,48,-99.99,,,-99.99,0.400000,,2013-04-09 13:11:00,
2013-04-09 07:21:00,27.0,14.0,29.98,NNE,22,20.0,31.0,58,-99.99,,,-99.99,1.500000,,2013-04-09 13:21:00,
2013-04-09 07:32:00,26.0,14.0,29.98,North,7,22.0,31.0,61,-99.99,,,-99.99,6.000000,,2013-04-09 13:32:00,
2013-04-09 07:41:00,26.0,14.0,29.99,NNE,12,22.0,32.0,60,-99.99,,,-99.99,7.900000,,2013-04-09 13:41:00,
2013-04-09 08:02:00,26.0,14.0,30.00,North,6,20.0,30.0,60,-99.99,,,-99.99,28.799999,,2013-04-09 14:02:00,
2013-04-09 08:11:00,26.0,12.0,30.00,North,11,20.0,29.0,53,-99.99,,,-99.99,43.900002,,2013-04-09 14:11:00,
2013-04-09 08:21:00,27.0,14.0,30.00,North,8,24.0,35.0,57,-99.99,,,-99.99,98.300003,,2013-04-09 14:21:00,
2013-04-09 08:32:00,27.0,13.0,30.01,North,6,21.0,30.0,54,-99.99,,,-99.99,140.100006,,2013-04-09 14:32:00,
2013-04-09 08:41:00,28.0,11.0,30.01,North,3,21.0,33.0,48,-99.99,,,-99.99,170.800003,,2013-04-09 14:41:00,
2013-04-09 08:51:00,28.0,11.0,30.01,NNE,12,25.0,34.0,49,-99.99,,,-99.99,189.199997,,2013-04-09 14:51:00,
2013-04-09 09:01:00,28.0,12.0,30.02,North,8,20.0,28.0,49,-99.99,,,-99.99,175.699997,,2013-04-09 15:01:00,
2013-04-09 09:11:00,29.0,11.0,30.02,NNE,13,17.0,27.0,46,-99.99,,,-99.99,183.300003,,2013-04-09 15:11:00,
2013-04-09 09:21:00,30.0,11.0,30.02,North,10,21.0,30.0,45,-99.99,,,-99.99,308.000000,,2013-04-09 15:21:00,
2013-04-09 09:32:00,31.0,11.0,30.02,NNE,12,21.0,29.0,43,-99.99,,,-99.99,467.600006,,2013-04-09 15:32:00,
2013-04-09 09:42:00,31.0,11.0,30.02,North,9,22.0,27.0,43,-99.99,,,-99.99,302.299988,,2013-04-09 15:42:00,
2013-04-09 09:52:00,31.0,11.0,30.02,North,8,23.0,31.0,43,-99.99,,,-99.99,278.600006,,2013-04-09 15:52:00,
2013-04-09 10:03:00,31.0,11.0,30.03,NNE,12,18.0,27.0,42,-99.99,,,-99.99,315.700012,,2013-04-09 16:03:00,
2013-04-09 10:12:00,32.0,10.0,30.03,NNE,18,21.0,30.0,39,-99.99,,,-99.99,326.700012,,2013-04-09 16:12:00,
2013-04-09 10:22:00,33.0,11.0,30.03,NNE,16,19.0,30.0,39,-99.99,,,-99.99,676.299988,,2013-04-09 16:22:00,
2013-04-09 10:32:00,33.0,9.0,30.03,NNE,23,24.0,36.0,36,-99.99,,,-99.99,304.899994,,2013-04-09 16:32:00,
2013-04-09 10:41:00,32.0,9.0,30.04,NNE,19,21.0,27.0,38,-99.99,,,-99.99,414.500000,,2013-04-09 16:41:00,
2013-04-09 10:52:00,32.0,9.0,30.04,NNE,19,19.0,28.0,37,-99.99,,,-99.99,303.700012,,2013-04-09 16:52:00,
2013-04-09 11:02:00,33.0,9.0,30.04,NNE,17,19.0,27.0,36,-99.99,,,-99.99,267.799988,,2013-04-09 17:02:00,
2013-04-09 11:12:00,34.0,9.0,30.05,NNE,17,20.0,29.0,36,-99.99,,,-99.99,359.899994,,2013-04-09 17:12:00,
2013-04-09 11:22:00,34.0,9.0,30.05,NNE,17,21.0,33.0,35,-99.99,,,-99.99,316.500000,,2013-04-09 17:22:00,
2013-04-09 11:32:00,34.0,9.0,30.05,NNE,18,20.0,28.0,34,-99.99,,,-99.99,389.600006,,2013-04-09 17:32:00,
2013-04-09 11:42:00,35.0,10.0,30.05,NNE,12,18.0,28.0,35,-99.99,,,-99.99,431.500000,,2013-04-09 17:42:00,
2013-04-09 11:53:00,36.0,10.0,30.05,NNE,23,18.0,24.0,34,-99.99,,,-99.99,574.700012,,2013-04-09 17:53:00,
2013-04-09 12:02:00,36.0,10.0,30.05,NNE,21,18.0,29.0,33,-99.99,,,-99.99,496.399994,,2013-04-09 18:02:00,
2013-04-09 12:22:00,36.0,10.0,30.05,NNE,30,17.0,25.0,33,-99.99,,,-99.99,821.000000,,2013-04-09 18:22:00,
2013-04-09 12:32:00,38.0,11.0,30.05,NNE,24,15.0,23.0,33,-99.99,,,-99.99,744.000000,,2013-04-09 18:32:00,
2013-04-09 12:42:00,37.0,11.0,30.05,NNE,21,15.0,22.0,34,-99.99,,,-99.99,797.299988,,2013-04-09 18:42:00,
2013-04-09 12:52:00,37.0,11.0,30.05,NNE,20,15.0,22.0,33,-99.99,,,-99.99,416.200012,,2013-04-09 18:52:00,
2013-04-09 13:02:00,37.0,11.0,30.05,NNE,22,13.0,19.0,33,-99.99,,,-99.99,382.399994,,2013-04-09 19:02:00,
2013-04-09 13:10:00,37.0,11.0,30.05,NNE,22,13.0,19.0,33,-99.99,,,-99.99,382.399994,,2013-04-09 19:10:00,
2013-04-09 13:21:00,37.0,11.0,30.05,NNE,19,12.0,18.0,33,-99.99,,,-99.99,411.899994,,2013-04-09 19:21:00,
2013-04-09 13:32:00,38.0,10.0,30.05,NNE,29,14.0,22.0,31,-99.99,,,-99.99,572.000000,,2013-04-09 19:32:00,
2013-04-09 13:41:00,38.0,10.0,30.05,NNE,29,14.0,22.0,31,-99.99,,,-99.99,572.000000,,2013-04-09 19:41:00,
2013-04-09 13:52:00,41.0,14.0,30.04,North,10,12.0,20.0,33,-99.99,,,-99.99,1023.000000,,2013-04-09 19:52:00,
2013-04-09 14:02:00,42.0,14.0,30.03,NNE,16,14.0,18.0,32,-99.99,,,-99.99,711.500000,,2013-04-09 20:02:00,
2013-04-09 14:11:00,41.0,13.0,30.03,NNE,16,13.0,18.0,32,-99.99,,,-99.99,789.200012,,2013-04-09 20:11:00,
2013-04-09 14:21:00,42.0,13.0,30.03,North,358,11.0,17.0,31,-99.99,,,-99.99,642.799988,,2013-04-09 20:21:00,
2013-04-09 14:32:00,42.0,14.0,30.03,NNE,23,11.0,15.0,31,-99.99,,,-99.99,713.000000,,2013-04-09 20:32:00,
2013-04-09 14:42:00,43.0,14.0,30.03,North,10,13.0,19.0,30,-99.99,,,-99.99,987.000000,,2013-04-09 20:42:00,
2013-04-09 14:52:00,43.0,13.0,30.03,North,355,14.0,20.0,30,-99.99,,,-99.99,929.000000,,2013-04-09 20:52:00,
2013-04-09 15:02:00,44.0,14.0,30.03,NNW,346,16.0,21.0,29,-99.99,,,-99.99,913.000000,,2013-04-09 21:02:00,
2013-04-09 15:21:00,44.0,13.0,30.03,North,352,14.0,19.0,29,-99.99,,,-99.99,933.000000,,2013-04-09 21:21:00,
2013-04-09 15:32:00,43.0,13.0,30.03,NNW,339,12.0,17.0,28,-99.99,,,-99.99,483.799988,,2013-04-09 21:32:00,
2013-04-09 15:42:00,43.0,13.0,30.03,NNW,339,12.0,17.0,28,-99.99,,,-99.99,483.799988,,2013-04-09 21:42:00,
2013-04-09 15:52:00,46.0,16.0,30.02,North,349,14.0,20.0,29,-99.99,,,-99.99,843.000000,,2013-04-09 21:52:00,
2013-04-09 16:02:00,46.0,15.0,30.02,NNW,345,15.0,23.0,29,-99.99,,,-99.99,780.099976,,2013-04-09 22:02:00,
2013-04-09 16:12:00,46.0,15.0,30.02,North,351,12.0,19.0,28,-99.99,,,-99.99,808.000000,,2013-04-09 22:12:00,
2013-04-09 16:22:00,46.0,14.0,30.02,North,5,17.0,25.0,27,-99.99,,,-99.99,652.900024,,2013-04-09 22:22:00,
2013-04-09 16:32:00,46.0,14.0,30.02,NNE,32,16.0,24.0,27,-99.99,,,-99.99,726.299988,,2013-04-09 22:32:00,
2013-04-09 16:42:00,46.0,15.0,30.01,North,359,15.0,19.0,28,-99.99,,,-99.99,705.000000,,2013-04-09 22:42:00,
2013-04-09 16:52:00,47.0,16.0,30.01,North,3,15.0,21.0,29,-99.99,,,-99.99,692.799988,,2013-04-09 22:52:00,
2013-04-09 17:02:00,47.0,16.0,30.01,North,358,16.0,22.0,28,-99.99,,,-99.99,666.400024,,2013-04-09 23:02:00,
2013-04-09 17:12:00,47.0,15.0,30.01,North,356,16.0,24.0,28,-99.99,,,-99.99,597.599976,,2013-04-09 23:12:00,
2013-04-09 17:22:00,47.0,16.0,30.01,North,5,15.0,22.0,28,-99.99,,,-99.99,574.700012,,2013-04-09 23:22:00,
2013-04-09 17:32:00,48.0,17.0,30.02,North,2,13.0,21.0,28,-99.99,,,-99.99,544.900024,,2013-04-09 23:32:00,
2013-04-09 17:42:00,47.0,16.0,30.02,North,359,17.0,24.0,28,-99.99,,,-99.99,505.399994,,2013-04-09 23:42:00,
2013-04-09 17:52:00,47.0,15.0,30.02,North,8,18.0,25.0,27,-99.99,,,-99.99,484.500000,,2013-04-09 23:52:00,
2013-04-09 18:02:00,47.0,15.0,30.02,North,3,19.0,26.0,28,-99.99,,,-99.99,467.399994,,2013-04-10 00:02:00,
2013-04-09 18:11:00,47.0,15.0,30.02,North,3,19.0,26.0,28,-99.99,,,-99.99,467.399994,,2013-04-10 00:11:00,
2013-04-09 18:21:00,46.0,16.0,30.03,North,354,17.0,23.0,29,-99.99,,,-99.99,395.899994,,2013-04-10 00:21:00,
2013-04-09 18:32:00,46.0,16.0,30.03,North,355,18.0,27.0,29,-99.99,,,-99.99,345.000000,,2013-04-10 00:32:00,
2013-04-09 18:51:00,46.0,16.0,30.03,North,355,21.0,29.0,29,-99.99,,,-99.99,275.799988,,2013-04-10 00:51:00,
2013-04-09 19:01:00,46.0,16.0,30.03,North,354,19.0,27.0,29,-99.99,,,-99.99,243.000000,,2013-04-10 01:01:00,
2013-04-09 19:11:00,46.0,16.0,30.04,North,354,17.0,27.0,30,-99.99,,,-99.99,208.100006,,2013-04-10 01:11:00,
2013-04-09 19:22:00,45.0,16.0,30.04,North,351,20.0,30.0,30,-99.99,,,-99.99,174.000000,,2013-04-10 01:22:00,
2013-04-09 19:31:00,45.0,16.0,30.04,North,356,19.0,26.0,30,-99.99,,,-99.99,141.000000,,2013-04-10 01:31:00,
2013-04-09 19:41:00,44.0,16.0,30.04,North,356,19.0,28.0,31,-99.99,,,-99.99,101.300003,,2013-04-10 01:41:00,
2013-04-09 19:52:00,44.0,16.0,30.05,North,354,19.0,30.0,32,-99.99,,,-99.99,60.000000,,2013-04-10 01:52:00,
2013-04-09 20:01:00,44.0,16.0,30.05,North,357,15.0,22.0,32,-99.99,,,-99.99,32.599998,,2013-04-10 02:01:00,
2013-04-09 20:11:00,43.0,16.0,30.06,North,356,17.0,23.0,33,-99.99,,,-99.99,15.300000,,2013-04-10 02:11:00,
2013-04-09 20:21:00,43.0,15.0,30.06,North,353,18.0,26.0,32,-99.99,,,-99.99,8.900000,,2013-04-10 02:21:00,
2013-04-09 20:32:00,42.0,15.0,30.07,North,356,17.0,24.0,33,-99.99,,,-99.99,2.600000,,2013-04-10 02:32:00,
2013-04-09 20:42:00,42.0,15.0,30.07,North,355,16.0,22.0,32,-99.99,,,-99.99,0.300000,,2013-04-10 02:42:00,
2013-04-09 20:51:00,42.0,14.0,30.08,North,356,17.0,21.0,33,-99.99,,,-99.99,0.000000,,2013-04-10 02:51:00,
2013-04-09 21:02:00,41.0,15.0,30.08,North,355,13.0,19.0,34,-99.99,,,-99.99,-0.100000,,2013-04-10 03:02:00,
2013-04-09 21:21:00,40.0,15.0,30.09,North,3,15.0,22.0,35,-99.99,,,-99.99,0.000000,,2013-04-10 03:21:00,
2013-04-09 21:32:00,40.0,15.0,30.10,North,5,14.0,19.0,35,-99.99,,,-99.99,0.000000,,2013-04-10 03:32:00,
2013-04-09 21:43:00,40.0,14.0,30.10,North,7,13.0,18.0,35,-99.99,,,-99.99,-0.200000,,2013-04-10 03:43:00,
2013-04-09 21:52:00,39.0,14.0,30.10,North,9,13.0,17.0,36,-99.99,,,-99.99,0.000000,,2013-04-10 03:52:00,
2013-04-09 22:02:00,39.0,14.0,30.11,North,8,13.0,19.0,35,-99.99,,,-99.99,0.000000,,2013-04-10 04:02:00,
2013-04-09 22:12:00,39.0,14.0,30.11,North,10,13.0,17.0,36,-99.99,,,-99.99,-0.100000,,2013-04-10 04:12:00,
2013-04-09 22:22:00,39.0,14.0,30.12,North,9,14.0,18.0,35,-99.99,,,-99.99,0.000000,,2013-04-10 04:22:00,
2013-04-09 22:33:00,38.0,14.0,30.13,North,6,12.0,17.0,37,-99.99,,,-99.99,0.000000,,2013-04-10 04:33:00,
2013-04-09 22:42:00,38.0,14.0,30.13,NNE,14,10.0,15.0,37,-99.99,,,-99.99,-0.100000,,2013-04-10 04:42:00,
2013-04-09 22:52:00,37.0,15.0,30.14,NE,44,10.0,12.0,40,-99.99,,,-99.99,0.200000,,2013-04-10 04:52:00,
2013-04-09 23:02:00,36.0,15.0,30.14,NNE,27,8.0,11.0,43,-99.99,,,-99.99,0.000000,,2013-04-10 05:02:00,
2013-04-09 23:12:00,35.0,16.0,30.14,NNE,31,8.0,10.0,45,-99.99,,,-99.99,-0.100000,,2013-04-10 05:12:00,
2013-04-09 23:22:00,34.0,16.0,30.14,NNE,23,9.0,11.0,46,-99.99,,,-99.99,-0.100000,,2013-04-10 05:22:00,
2013-04-09 23:32:00,34.0,17.0,30.15,NNE,13,11.0,15.0,49,-99.99,,,-99.99,-0.100000,,2013-04-10 05:32:00,
2013-04-09 23:42:00,34.0,17.0,30.15,NNE,30,7.0,11.0,49,-99.99,,,-99.99,0.000000,,2013-04-10 05:42:00,
2013-04-09 23:52:00,33.0,17.0,30.14,NE,42,5.0,7.0,51,-99.99,,,-99.99,0.000000,,2013-04-10 05:52:00,